Aktualne dane pomiarowe

Uwaga, wersja testowa! Automatyczne pobieranie danych za pomocą narzędzi lub skryptów to umożliwiających jest zabronione.

Dane meteo z obszaru Polski uzyskane na podstawie depesz SYNOP pobieranych co godzinę z NWS. Najedź myszką na symbol przedstawiony w tabeli, aby uzyskać informacje co do jego znaczenia. Prosimy pamiętać, że to testowa wersja strony, która jeszcze nie jest ukończona. Stworzono również jest krótki FAQ dotyczący korzystania z tej podstrony Anomalie temperatury w chwili obecnej odniesione są do okresu referencyjnego 1951-2016. Okres ten będzie później zmieniony na 1981-2010. Kliknij ikonę aby pobrać plik CSV. Kliknij ikonę aby wygenerować mapę synoptyczną dla danego terminu.

Wybierz Datę:    

        

Kasprowy Wierch (12650)

Dane terminowe dla wybranej stacji. Kliknij datę, aby otrzymać dane z tego terminu dla wszystkich stacji.

TemperaturaZachmurzenieWiatrCiśnienieOpadyPogoda
 Data t td wb tx tn tg rh  Nt Nl Cl Cm Ch ws wd g1 g2 wx mslp ppp ch 24h 12h t ww ww w1 w2  
2019-07-07 23:00:00 2.6 2.6 2.5--- 1000.1wx-4wx--4- 796.7 0.6---wx-w1w2--
2019-07-07 22:00:00 2.7 2.6 2.5--- 990.1wx-4wx-84- 796.4 0.4---wx-w1w2--
2019-07-07 21:00:00 4.2 4.2 4.1--- 1000.1wx-3wx-143- 796.1 -0.2---wx-w1--
2019-07-07 20:00:00 5.8 5.8 5.7--- 1000.1wx-3wx-143- 796.1 0.1---wx-w1w2--
2019-07-07 19:00:00 5.7 5.3 5.4--- 970.1wxwxwx8wx---- 796.0 -0.2---wx-w1--
2019-07-07 18:00:00 6.6 5.2 5.6 13.4 6.6- 9120.0wxwxwxwx10wx---- 796.3 0.3---wx-w1w2--
2019-07-07 17:00:00 7.1 6.7 6.8--- 970.1wxwxwx9wx16--- 796.0 0.0---wx-w1w2--
2019-07-07 16:00:00 7.7 7.6 7.6--- 990.1wxwxwx9wx---- 796.2 -0.4---wx-w1w2--
2019-07-07 15:00:00 8.0 7.6 7.7--- 970.1wxwxwx8wx13138- 796.0 -0.7---wx-w1w2--
2019-07-07 14:00:00 10.0 7.8 8.5--- 8615.0wxwxwx4wx994- 796.0 -0.9---wx-w1--
2019-07-07 13:00:00 11.0 8.6 9.4--- 850.3wxwxwx4wx---- 796.6 -0.1---wx---
2019-07-07 12:00:00 11.9 8.7 9.8--- 8130.0wxwxwx2wx-142- 796.7 0.2- 0.06------
2019-07-07 11:00:00 12.5 4.5 8.1--- 5850.0wxwxwx7wx12--- 796.9 0.5---------
2019-07-07 10:00:00 13.1 4.8 8.5--- 5750.0wxwxwx4wx-134- 796.7 0.3---------
2019-07-07 09:00:00 12.2 4.2 7.8--- 5850.0wxwxwxwxwx4wx-144- 796.5 -0.3---------
2019-07-07 08:00:00 11.7 3.2 7.2--- 5650.0wxwxwxwx6wx-106- 796.4 -0.3---------
2019-07-07 07:00:00 11.9 2.9 7.1--- 5450.0wxwxwxwxwx4wx9144- 796.4 -0.2---------
2019-07-07 06:00:00 11.2 1.1 6.1 12.6 10.7- 5050.0wx-wxwx6wx11166- 796.8 0.1- 0.012----- 7.1
2019-07-07 05:00:00 11.3 -0.5 5.6--- 4450.0wx-wxwx10wx--10- 796.7 -0.1---------
2019-07-07 04:00:00 11.0 2.8 6.6--- 5750.0wx-wxwx7wx--7- 796.6 -0.9---------
2019-07-07 03:00:00 11.0 4.2 7.2--- 6350.0wxwxwxwx5wx-165- 796.7 -1.1---------
2019-07-07 02:00:00 11.5 4.5 7.6--- 6250.0wxwxwxwx7wx12167- 796.8 -1.4---------
2019-07-07 01:00:00 11.9 4.4 7.7--- 6050.0wxwxwxwx9wx16--- 797.5 -0.8---wx---
2019-07-07 00:00:00 11.9 5.1 8.0--- 6350.0wxwxwx8wx-178- 797.8 -0.6- 0.06wx---
2019-07-06 23:00:00 11.8 6.9 8.8--- 7250.0wxwxwx8wx16178- 798.2 -0.5---wx---
2019-07-06 22:00:00 11.4 5.5 8.0--- 6750.0wx-wxwx10wx--10- 798.3 -0.6---------
2019-07-06 21:00:00 11.5 4.7 7.7--- 6350.0wx-wxwx10wx-1710- 798.4 -0.9---------
2019-07-06 20:00:00 11.6 4.1 7.5--- 6050.0wx-wxwx9wx15169- 798.7 -0.6---------
2019-07-06 19:00:00 12.1 3.6 7.5--- 5650.0wx-wxwx7wx14147- 798.9 -0.6---------
2019-07-06 18:00:00 12.6 3.8 7.8 15.6 6.9- 5550.0wxwxwxwxwx8wx-128- 799.3 -0.4- 0.012------
2019-07-06 17:00:00 14.0 4.0 8.6--- 5150.0wxwxwxwxwx6wx-106- 799.3 -0.5---------
2019-07-06 16:00:00 13.2 3.8 8.2--- 5350.0wxwxwxwxwx4wx9124- 799.5 -0.5---------
2019-07-06 15:00:00 13.3 0.3 7.0--- 4150.0wxwxwxwxwx8wx-128- 799.7 -0.2---------
2019-07-06 14:00:00 14.0 1.9 7.9--- 4450.0wxwxwxwxwx6wx11126- 799.8 -0.3---------
2019-07-06 13:00:00 13.5 2.1 7.7--- 4650.0wxwxwxwx6wx12126- 800.0 -0.2---------
2019-07-06 12:00:00 12.0 3.5 7.4--- 5650.0wxwxwxwx5wx-115- 799.9 -0.4- 0.06------
2019-07-06 11:00:00 11.7 4.7 7.8--- 6250.0wxwxwxwx3wx8103- 800.1 -0.2---------
2019-07-06 10:00:00 11.0 4.2 7.2--- 6350.0wxwxwxwx4wx994- 800.2 0.0---------
2019-07-06 09:00:00 11.4 5.0 7.7--- 6550.0wxwxwxwx3wx-113- 800.3 0.2---------
2019-07-06 08:00:00 8.6 4.4 6.1--- 7550.0wxwxwxwx6wx11116- 800.3 0.3---------
2019-07-06 07:00:00 7.7 4.1 5.5--- 7850.0wxwxwxwxwx5wx-105- 800.2 0.0---------
2019-07-06 06:00:00 7.0 3.2 4.8 7.1 5.3- 7750.0wxwxwxwxwx5wx-155- 800.1 0.0- 0.012----- 3.8
2019-07-06 05:00:00 6.6 3.2 4.6--- 7950.0wxwxwx8wx13138- 800.0 -0.2---------
2019-07-06 04:00:00 5.9 3.9 4.6--- 8750.0wxwxwx5wx--5- 800.2 -0.2---------
2019-07-06 03:00:00 5.8 4.0 4.6--- 8840.0wxwxwx6wx---- 800.1 -0.6---------
2019-07-06 02:00:00 5.6 4.1 4.6--- 9040.0wxwxwx6wx-116- 800.2 -0.3---------
2019-07-06 01:00:00 5.7 3.5 4.3--- 8640.0wxwxwx7wx--7- 800.4 -0.2---------
2019-07-06 00:00:00 5.7 3.0 4.0--- 8340.0wxwxwx5wx-145- 800.7 0.0- 0.06------
4.6 ms

 

Print Friendly, PDF & Email